Terminal Aerodrome Forecast
Issued by NWS

Home | Current Version | Previous Version | Text Only | Print | Product List | Glossary On
Versions: 1 2 3 4 5 6 7 8 9 10 11 12 13 14
000
FTUS45 KLKN 191120
TAFTPH
TAF
KTPH 191120Z 1912/2012 19010KT 3SM -SN BR BKN030 OVC080
      TEMPO 1912/1915 1SM -SN OVC010
     FM191800 30009KT P6SM VCSH BKN050
     FM200000 34007KT P6SM FEW040 BKN150=

USA.gov is the U.S. government's official web portal to all federal, state and local government web resources and services.